Terminal Aerodrome Forecast
Issued by NWS

Home | Current Version | Previous Version | Text Only | Print | Product List | Glossary Off
Versions: 1 2 3 4 5 6 7 8 9 10 11 12 13 14 15 16 17 18 19 20 21 22 23 24 25 26 27 28

000
FTUS43 KBIS 281408 AAB
TAFMOT
TAF AMD
KMOT 281408Z 2814/2912 11009KT 2SM BR OVC002
      TEMPO 2814/2816 1/2SM FG OVC002
     FM281600 09008KT P6SM OVC006
     FM282000 10008KT P6SM OVC008
     FM290400 12006KT P6SM VCSH OVC008
     FM290600 17005KT P6SM OVC025=

USA.gov is the U.S. government's official web portal to all federal, state and local government web resources and services.